createdAt,value
2018-12-18T00:02:10.643Z,76.90
2018-12-18T00:04:40.481Z,76.81
2018-12-18T00:07:10.963Z,76.96
2018-12-18T00:09:40.085Z,77.02
2018-12-18T00:12:09.259Z,76.78
2018-12-18T00:14:39.298Z,76.88
2018-12-18T00:17:07.548Z,76.72
2018-12-18T00:19:36.649Z,76.80
2018-12-18T00:22:06.050Z,76.83
2018-12-18T00:24:35.321Z,76.80
2018-12-18T00:27:04.470Z,76.55
2018-12-18T00:29:33.585Z,76.67
2018-12-18T00:32:02.728Z,76.54
2018-12-18T00:34:32.153Z,76.55
2018-12-18T00:37:01.519Z,76.47
2018-12-18T00:39:30.612Z,76.21
2018-12-18T00:41:59.844Z,76.37
2018-12-18T00:44:29.088Z,76.21
2018-12-18T00:46:58.236Z,75.80
2018-12-18T00:49:27.333Z,75.61
2018-12-18T00:51:57.347Z,75.69
2018-12-18T00:54:28.433Z,75.80
2018-12-18T00:56:57.629Z,75.68
2018-12-18T00:59:26.800Z,76.01
2018-12-18T01:02:01.203Z,76.00
2018-12-18T01:04:30.454Z,75.70
2018-12-18T01:06:59.630Z,75.77
2018-12-18T01:09:28.806Z,76.00
2018-12-18T01:11:58.002Z,75.86
2018-12-18T01:14:27.098Z,76.04
2018-12-18T01:16:56.192Z,76.13
2018-12-18T01:19:25.392Z,76.16
2018-12-18T01:21:54.592Z,76.03
2018-12-18T01:24:24.389Z,76.20
2018-12-18T01:26:53.428Z,76.24
2018-12-18T01:29:22.598Z,76.10
2018-12-18T01:31:52.166Z,76.18
2018-12-18T01:34:21.379Z,76.13
2018-12-18T01:36:50.510Z,76.27
2018-12-18T01:39:19.613Z,76.07
2018-12-18T01:41:49.454Z,75.95
2018-12-18T01:44:18.735Z,75.79
2018-12-18T01:46:47.952Z,75.85
2018-12-18T01:49:17.092Z,75.86
2018-12-18T01:51:46.174Z,75.91
2018-12-18T01:54:15.748Z,75.86
2018-12-18T01:56:44.944Z,75.78
2018-12-18T01:59:14.127Z,75.63
2018-12-18T02:01:43.300Z,75.55
2018-12-18T02:04:13.035Z,75.63
2018-12-18T02:06:42.109Z,75.55
2018-12-18T02:09:11.340Z,75.51
2018-12-18T02:11:42.699Z,75.26
2018-12-18T02:14:11.776Z,75.28
2018-12-18T02:16:40.979Z,75.40
2018-12-18T02:19:10.053Z,75.14
2018-12-18T02:21:39.162Z,74.96
2018-12-18T02:24:08.307Z,75.06
2018-12-18T02:26:37.560Z,74.95
2018-12-18T02:29:06.760Z,74.51
2018-12-18T02:31:35.969Z,74.55
2018-12-18T02:34:13.530Z,74.68
2018-12-18T02:36:35.230Z,74.40
2018-12-18T02:39:04.535Z,74.27
2018-12-18T02:41:33.777Z,74.21
2018-12-18T02:44:02.914Z,74.14
2018-12-18T02:46:32.062Z,74.25
2018-12-18T02:49:01.140Z,74.06
2018-12-18T02:51:30.326Z,73.61
2018-12-18T02:53:59.545Z,73.53
2018-12-18T02:56:28.609Z,73.41
2018-12-18T02:58:57.706Z,73.43
2018-12-18T03:01:26.814Z,73.77
2018-12-18T03:03:57.814Z,73.45
2018-12-18T03:06:26.994Z,73.57
2018-12-18T03:08:56.109Z,73.64
2018-12-18T03:11:25.326Z,73.73
2018-12-18T03:13:54.735Z,73.65
2018-12-18T03:16:24.706Z,73.30
2018-12-18T03:18:53.846Z,73.40
2018-12-18T03:21:23.023Z,73.21
2018-12-18T03:23:52.169Z,73.23
2018-12-18T03:26:21.307Z,73.25
2018-12-18T03:28:50.979Z,73.16
2018-12-18T03:31:20.156Z,73.26
2018-12-18T03:33:49.929Z,73.09
2018-12-18T03:36:19.063Z,73.19
2018-12-18T03:38:48.192Z,73.09
2018-12-18T03:41:17.436Z,73.01
2018-12-18T03:43:46.647Z,73.06
2018-12-18T03:46:15.744Z,73.15
2018-12-18T03:48:44.876Z,72.84
2018-12-18T03:51:14.071Z,72.75
2018-12-18T03:53:43.253Z,72.81
2018-12-18T03:56:12.445Z,72.68
2018-12-18T03:58:41.573Z,72.46
2018-12-18T04:01:10.729Z,72.54
2018-12-18T04:03:39.835Z,72.52
2018-12-18T04:06:09.848Z,72.57
2018-12-18T04:08:39.131Z,72.39
2018-12-18T04:11:08.253Z,72.45
2018-12-18T04:13:37.451Z,72.31
2018-12-18T04:16:06.547Z,72.05
2018-12-18T04:18:35.642Z,71.78
2018-12-18T04:21:04.832Z,71.69
2018-12-18T04:23:33.953Z,72.16
2018-12-18T04:26:03.226Z,72.00
2018-12-18T04:28:32.328Z,72.42
2018-12-18T04:31:01.519Z,72.41
2018-12-18T04:33:31.588Z,72.39
2018-12-18T04:36:00.646Z,72.76
2018-12-18T04:38:29.855Z,72.67
2018-12-18T04:40:59.945Z,72.72
2018-12-18T04:43:29.171Z,72.76
2018-12-18T04:45:58.876Z,72.59
2018-12-18T04:48:27.987Z,72.42
2018-12-18T04:50:57.148Z,72.45
2018-12-18T04:53:26.263Z,72.30
2018-12-18T04:55:55.432Z,72.45
2018-12-18T04:58:24.545Z,72.63
2018-12-18T05:00:53.738Z,72.39
2018-12-18T05:03:22.920Z,72.57
2018-12-18T05:05:51.999Z,72.37
2018-12-18T05:08:21.064Z,72.27
2018-12-18T05:10:50.249Z,72.25
2018-12-18T05:13:19.409Z,72.29
2018-12-18T05:15:48.654Z,72.21
2018-12-18T05:18:17.831Z,72.20
2018-12-18T05:20:47.593Z,72.38
2018-12-18T05:23:23.308Z,72.28
2018-12-18T05:25:52.516Z,72.35
2018-12-18T05:28:21.717Z,72.59
2018-12-18T05:30:50.974Z,72.41
2018-12-18T05:33:20.179Z,72.42
2018-12-18T05:35:49.291Z,72.35
2018-12-18T05:38:18.453Z,72.54
2018-12-18T05:40:47.847Z,72.27
2018-12-18T05:43:17.046Z,72.32
2018-12-18T05:45:46.250Z,72.48
2018-12-18T05:48:15.388Z,72.57
2018-12-18T05:50:44.586Z,72.57
2018-12-18T05:53:13.636Z,72.59
2018-12-18T05:55:42.882Z,72.52
2018-12-18T05:58:12.129Z,72.72
2018-12-18T06:00:41.264Z,72.96
2018-12-18T06:03:10.488Z,73.10
2018-12-18T06:05:39.628Z,73.13
2018-12-18T06:08:08.846Z,73.21
2018-12-18T06:10:38.017Z,73.52
2018-12-18T06:13:07.160Z,73.54
2018-12-18T06:15:36.315Z,73.86
2018-12-18T06:18:06.454Z,73.96
2018-12-18T06:20:35.515Z,74.33
2018-12-18T06:23:04.627Z,74.54
2018-12-18T06:25:33.688Z,74.73
2018-12-18T06:28:02.902Z,74.86
2018-12-18T06:30:32.201Z,74.93
2018-12-18T06:33:01.399Z,75.03
2018-12-18T06:35:30.493Z,75.44
2018-12-18T06:37:59.689Z,75.28
2018-12-18T06:40:28.740Z,75.20
2018-12-18T06:42:57.982Z,75.37
2018-12-18T06:45:27.104Z,75.39
2018-12-18T06:47:56.267Z,75.43
2018-12-18T06:50:25.369Z,75.49
2018-12-18T06:52:56.003Z,75.29
2018-12-18T06:55:25.806Z,75.47
2018-12-18T06:57:54.501Z,75.44
2018-12-18T07:00:23.745Z,75.31
2018-12-18T07:02:52.905Z,75.08
2018-12-18T07:05:22.095Z,75.02
2018-12-18T07:07:57.215Z,75.24
2018-12-18T07:10:20.454Z,75.04
2018-12-18T07:13:52.782Z,75.00
2018-12-18T07:16:21.984Z,74.52
2018-12-18T07:18:51.681Z,74.51
2018-12-18T07:21:20.853Z,74.34
2018-12-18T07:23:50.424Z,74.27
2018-12-18T07:26:19.597Z,74.10
2018-12-18T07:28:49.983Z,74.09
2018-12-18T07:31:18.061Z,74.02
2018-12-18T07:33:47.272Z,73.85
2018-12-18T07:36:16.382Z,73.93
2018-12-18T07:38:45.656Z,73.72
2018-12-18T07:41:14.767Z,73.57
2018-12-18T07:43:43.952Z,73.64
2018-12-18T07:46:13.081Z,73.20
2018-12-18T07:48:42.313Z,72.93
2018-12-18T07:51:11.395Z,73.16
2018-12-18T07:53:40.555Z,72.97
2018-12-18T07:56:09.650Z,73.08
2018-12-18T07:58:38.776Z,73.43
2018-12-18T08:01:10.788Z,73.12
2018-12-18T08:03:39.845Z,73.16
2018-12-18T08:06:09.235Z,73.09
2018-12-18T08:08:38.431Z,73.24
2018-12-18T08:11:07.637Z,73.26
2018-12-18T08:13:36.740Z,73.04
2018-12-18T08:16:05.858Z,73.14
2018-12-18T08:18:35.705Z,73.25
2018-12-18T08:21:06.836Z,73.16
2018-12-18T08:23:37.090Z,73.21
2018-12-18T08:26:10.547Z,73.14
2018-12-18T08:28:39.759Z,73.44
2018-12-18T08:31:09.618Z,73.33
2018-12-18T08:33:38.922Z,73.71
2018-12-18T08:36:09.219Z,73.55
2018-12-18T08:38:38.524Z,73.53
2018-12-18T08:41:07.747Z,73.75
2018-12-18T08:43:37.051Z,73.75
2018-12-18T08:46:10.247Z,73.54
2018-12-18T08:48:35.839Z,73.58
2018-12-18T08:51:05.211Z,73.82
2018-12-18T08:53:34.701Z,73.73
2018-12-18T08:56:04.091Z,73.78
2018-12-18T08:58:33.383Z,73.99
2018-12-18T09:01:02.840Z,74.12
2018-12-18T09:03:32.591Z,74.44
2018-12-18T09:06:01.747Z,74.27
2018-12-18T09:08:32.990Z,74.58
2018-12-18T09:11:03.619Z,74.52
2018-12-18T09:13:33.990Z,74.70
2018-12-18T09:16:04.038Z,74.85
2018-12-18T09:18:33.235Z,75.31
2018-12-18T09:21:04.148Z,75.49
2018-12-18T09:25:15.820Z,75.44
2018-12-18T09:27:46.284Z,75.82
2018-12-18T09:30:46.137Z,76.26
2018-12-18T09:36:20.693Z,76.52
2018-12-18T09:38:55.444Z,76.70
2018-12-18T09:41:27.212Z,77.08
2018-12-18T09:44:01.335Z,77.20
2018-12-18T09:46:30.778Z,77.23
2018-12-18T09:49:00.384Z,77.14
2018-12-18T09:51:29.722Z,77.30
2018-12-18T09:56:56.484Z,77.69
2018-12-18T09:59:27.186Z,77.89
2018-12-18T10:02:01.698Z,77.76
2018-12-18T10:04:30.966Z,77.79
2018-12-18T10:07:00.213Z,77.93
2018-12-18T10:09:30.695Z,77.82
2018-12-18T10:11:59.956Z,77.94
2018-12-18T10:14:34.082Z,77.89
2018-12-18T10:17:04.133Z,77.89
2018-12-18T10:19:33.380Z,78.13
2018-12-18T10:22:02.462Z,78.13
2018-12-18T10:24:32.413Z,78.25
2018-12-18T10:27:01.583Z,78.29
2018-12-18T10:29:30.744Z,78.33
2018-12-18T10:32:00.024Z,78.27
2018-12-18T10:34:29.198Z,78.53
2018-12-18T10:36:58.297Z,78.19
2018-12-18T10:39:28.003Z,78.41
2018-12-18T10:41:57.176Z,78.27
2018-12-18T10:44:32.553Z,78.37
2018-12-18T10:47:01.750Z,78.38
2018-12-18T10:49:31.552Z,78.40
2018-12-18T10:52:04.039Z,78.50
2018-12-18T10:54:33.244Z,78.75
2018-12-18T10:57:03.437Z,78.53
2018-12-18T10:59:33.911Z,78.59
2018-12-18T11:02:04.934Z,78.73
2018-12-18T11:07:37.951Z,78.88
2018-12-18T11:10:08.344Z,78.73
2018-12-18T11:12:41.128Z,78.95
2018-12-18T11:15:11.343Z,78.82
2018-12-18T11:17:42.788Z,78.85
2018-12-18T11:20:13.052Z,78.65
2018-12-18T11:22:42.255Z,78.81
2018-12-18T11:25:11.941Z,78.88
2018-12-18T11:27:42.070Z,78.99
2018-12-18T11:30:11.762Z,78.92
2018-12-18T11:32:40.960Z,78.94
2018-12-18T11:35:10.419Z,78.85
2018-12-18T11:37:39.774Z,79.00
2018-12-18T11:40:09.851Z,79.02
2018-12-18T11:42:39.131Z,79.14
2018-12-18T11:45:08.518Z,79.13
2018-12-18T11:47:37.850Z,78.97
2018-12-18T11:50:07.497Z,79.28
2018-12-18T11:52:36.698Z,79.32
2018-12-18T11:55:08.195Z,79.07
2018-12-18T11:57:37.555Z,79.12
2018-12-18T12:00:14.394Z,79.11
2018-12-18T12:02:44.587Z,79.31
2018-12-18T12:05:13.929Z,79.05
2018-12-18T12:07:43.247Z,79.17
2018-12-18T12:10:13.801Z,79.13
2018-12-18T12:12:45.226Z,79.29
2018-12-18T12:15:15.006Z,79.27
2018-12-18T12:17:44.443Z,79.29
2018-12-18T12:20:13.829Z,79.19
2018-12-18T12:22:44.906Z,79.32
2018-12-18T12:25:14.119Z,79.38
2018-12-18T12:27:48.274Z,79.42
2018-12-18T12:30:18.465Z,79.56
2018-12-18T12:32:47.650Z,79.58
2018-12-18T12:35:16.878Z,79.74
2018-12-18T12:37:46.209Z,79.56
2018-12-18T12:40:15.401Z,79.62
2018-12-18T12:42:44.744Z,79.55
2018-12-18T12:45:14.013Z,79.42
2018-12-18T12:47:43.303Z,79.64
2018-12-18T12:50:12.503Z,79.44
2018-12-18T12:52:41.599Z,79.49
2018-12-18T12:55:10.909Z,79.62
2018-12-18T12:57:40.301Z,79.59
2018-12-18T13:00:09.769Z,79.65
2018-12-18T13:02:39.034Z,79.74
2018-12-18T13:05:09.817Z,79.67
2018-12-18T13:07:39.122Z,79.80
2018-12-18T13:10:08.431Z,79.75
2018-12-18T13:12:38.298Z,79.90
2018-12-18T13:15:08.404Z,79.86
2018-12-18T13:17:37.561Z,79.65
2018-12-18T13:20:07.073Z,79.92
2018-12-18T13:22:36.362Z,80.07
2018-12-18T13:25:06.304Z,80.03
2018-12-18T13:27:35.673Z,80.02
2018-12-18T13:30:05.173Z,80.06
2018-12-18T13:32:34.373Z,80.10
2018-12-18T13:35:03.960Z,80.32
2018-12-18T13:37:33.283Z,80.24
2018-12-18T13:40:03.135Z,80.49
2018-12-18T13:42:33.256Z,80.50
2018-12-18T13:45:02.509Z,80.48
2018-12-18T13:47:31.654Z,80.70
2018-12-18T13:50:01.647Z,80.66
2018-12-18T13:52:30.933Z,80.62
2018-12-18T13:55:00.524Z,80.71
2018-12-18T13:57:29.664Z,80.66
2018-12-18T13:59:58.851Z,80.92
2018-12-18T14:02:28.049Z,80.83
2018-12-18T14:04:57.788Z,80.96
2018-12-18T14:07:27.190Z,81.17
2018-12-18T14:09:59.329Z,81.06
2018-12-18T14:12:29.605Z,81.23
2018-12-18T14:15:01.136Z,80.83
2018-12-18T14:17:30.711Z,80.95
2018-12-18T14:19:59.888Z,80.95
2018-12-18T14:22:29.243Z,80.87
2018-12-18T14:24:58.574Z,80.85
2018-12-18T14:27:28.301Z,80.78
2018-12-18T14:29:57.538Z,80.78
2018-12-18T14:32:26.859Z,80.75
2018-12-18T14:34:56.226Z,80.58
2018-12-18T14:37:25.379Z,80.79
2018-12-18T14:39:55.511Z,80.80
2018-12-18T14:42:24.893Z,80.64
2018-12-18T14:44:54.247Z,80.75
2018-12-18T14:47:23.448Z,80.55
2018-12-18T14:49:52.910Z,80.31
2018-12-18T14:52:22.459Z,80.43
2018-12-18T14:54:52.387Z,80.37
2018-12-18T14:57:22.600Z,80.56
2018-12-18T14:59:51.966Z,80.41
2018-12-18T15:02:21.292Z,80.15
2018-12-18T15:05:03.192Z,80.14
2018-12-18T15:07:32.365Z,80.01
2018-12-18T15:10:02.713Z,80.05
2018-12-18T15:12:32.428Z,79.83
2018-12-18T15:15:01.903Z,79.81
2018-12-18T15:17:31.743Z,79.67
2018-12-18T15:20:01.964Z,79.84
2018-12-18T15:22:31.523Z,79.97
2018-12-18T15:25:02.035Z,79.94
2018-12-18T15:27:31.696Z,79.79
2018-12-18T15:30:02.945Z,79.69
2018-12-18T15:32:32.212Z,79.65
2018-12-18T15:35:02.957Z,79.67
2018-12-18T15:37:32.244Z,79.75
2018-12-18T15:40:01.320Z,79.52
2018-12-18T15:42:30.659Z,79.83
2018-12-18T15:45:00.347Z,79.89
2018-12-18T15:47:29.688Z,79.87
2018-12-18T15:50:03.480Z,79.88
2018-12-18T15:52:32.576Z,79.83
2018-12-18T15:55:01.750Z,79.76
2018-12-18T15:57:31.112Z,80.11
2018-12-18T16:00:00.308Z,80.15
2018-12-18T16:02:29.761Z,80.11
2018-12-18T16:04:58.988Z,80.18
2018-12-18T16:07:28.288Z,80.19
2018-12-18T16:09:58.176Z,80.31
2018-12-18T16:12:27.691Z,80.25
2018-12-18T16:14:56.915Z,80.22
2018-12-18T16:17:26.692Z,80.23
2018-12-18T16:19:56.740Z,80.27
2018-12-18T16:22:26.020Z,80.14
2018-12-18T16:24:56.234Z,80.02
2018-12-18T16:27:25.438Z,80.20
2018-12-18T16:29:56.071Z,79.98
2018-12-18T16:32:27.106Z,80.09
2018-12-18T16:34:56.723Z,79.97
2018-12-18T16:37:25.919Z,80.05
2018-12-18T16:39:55.651Z,79.91
2018-12-18T16:42:24.921Z,80.03
2018-12-18T16:44:54.335Z,79.87
2018-12-18T16:47:24.555Z,79.88
2018-12-18T16:49:53.794Z,79.97
2018-12-18T16:52:23.019Z,79.93
2018-12-18T16:54:52.291Z,79.99
2018-12-18T16:57:22.299Z,79.84
2018-12-18T16:59:51.527Z,79.92
2018-12-18T17:02:20.917Z,79.86
2018-12-18T17:04:51.393Z,80.05
2018-12-18T17:07:21.441Z,80.03
2018-12-18T17:09:51.492Z,79.99
2018-12-18T17:12:20.895Z,79.85
2018-12-18T17:14:50.695Z,79.78
2018-12-18T17:17:19.835Z,79.76
2018-12-18T17:19:50.044Z,79.70
2018-12-18T17:22:19.313Z,79.66
2018-12-18T17:24:48.541Z,79.74
2018-12-18T17:27:17.982Z,79.53
2018-12-18T17:29:47.818Z,79.42
2018-12-18T17:32:17.003Z,79.28
2018-12-18T17:34:46.197Z,79.41
2018-12-18T17:37:15.392Z,79.52
2018-12-18T17:39:44.519Z,79.39
2018-12-18T17:42:13.619Z,79.14
2018-12-18T17:44:42.852Z,79.46
2018-12-18T17:47:12.128Z,79.38
2018-12-18T17:49:41.399Z,79.44
2018-12-18T17:52:10.507Z,79.30
2018-12-18T17:54:39.615Z,79.51
2018-12-18T17:57:08.851Z,79.50
2018-12-18T17:59:38.095Z,79.52
2018-12-18T18:02:07.449Z,79.54
2018-12-18T18:04:37.596Z,79.32
2018-12-18T18:07:06.709Z,79.52
2018-12-18T18:09:35.956Z,79.51
2018-12-18T18:12:05.164Z,79.55
2018-12-18T18:14:34.362Z,79.40
2018-12-18T18:17:03.879Z,79.48
2018-12-18T18:19:33.221Z,79.61
2018-12-18T18:22:02.323Z,79.49
2018-12-18T18:24:31.735Z,79.92
2018-12-18T18:27:00.849Z,79.91
2018-12-18T18:29:30.177Z,80.01
2018-12-18T18:31:59.300Z,79.84
2018-12-18T18:37:04.407Z,79.89
2018-12-18T18:39:34.405Z,79.99
2018-12-18T18:42:03.675Z,80.17
2018-12-18T18:44:32.698Z,80.03
2018-12-18T18:47:01.871Z,80.05
2018-12-18T18:49:31.083Z,80.36
2018-12-18T18:52:01.081Z,80.17
2018-12-18T18:54:30.853Z,80.12
2018-12-18T18:57:00.607Z,80.35
2018-12-18T18:59:29.851Z,80.20
2018-12-18T19:02:00.011Z,80.39
2018-12-18T19:04:29.241Z,80.24
2018-12-18T19:06:58.347Z,80.18
2018-12-18T19:09:27.705Z,80.17
2018-12-18T19:11:56.845Z,80.27
2018-12-18T19:14:26.042Z,80.24
2018-12-18T19:16:55.241Z,80.34
2018-12-18T19:19:25.397Z,80.04
2018-12-18T19:21:54.494Z,80.07
2018-12-18T19:24:23.924Z,80.47
2018-12-18T19:26:53.021Z,80.45
2018-12-18T19:29:22.119Z,80.20
2018-12-18T19:31:52.237Z,80.10
2018-12-18T19:34:21.472Z,80.19
2018-12-18T19:36:51.045Z,80.34
2018-12-18T19:39:20.291Z,80.31
2018-12-18T19:41:49.539Z,80.45
2018-12-18T19:44:19.444Z,80.59
2018-12-18T19:46:49.821Z,80.40
2018-12-18T19:49:20.266Z,80.76
2018-12-18T19:51:49.462Z,80.72
2018-12-18T19:54:18.797Z,80.90
2018-12-18T19:56:48.296Z,81.03
2018-12-18T19:59:17.420Z,81.04
2018-12-18T20:01:46.638Z,81.02
2018-12-18T20:04:16.302Z,80.98
2018-12-18T20:06:45.428Z,80.81
2018-12-18T20:09:14.598Z,81.07
2018-12-18T20:11:43.736Z,80.93
2018-12-18T20:14:13.050Z,80.94
2018-12-18T20:16:42.243Z,80.94
2018-12-18T20:19:11.462Z,80.98
2018-12-18T20:21:40.584Z,81.06
2018-12-18T20:24:09.889Z,80.94
2018-12-18T20:26:39.088Z,81.00
2018-12-18T20:29:08.279Z,80.93
2018-12-18T20:31:37.653Z,80.99
2018-12-18T20:34:06.962Z,80.97
2018-12-18T20:36:36.185Z,81.03
2018-12-18T20:39:07.223Z,81.03
2018-12-18T20:41:36.430Z,81.15
2018-12-18T20:44:05.661Z,81.21
2018-12-18T20:46:34.772Z,80.91
2018-12-18T20:49:04.020Z,80.90
2018-12-18T20:51:33.121Z,80.81
2018-12-18T20:54:02.247Z,80.89
2018-12-18T20:56:31.977Z,80.83
2018-12-18T20:59:01.231Z,80.90
2018-12-18T21:01:32.592Z,80.89
2018-12-18T21:04:06.175Z,80.88
2018-12-18T21:06:35.594Z,80.83
2018-12-18T21:09:05.121Z,80.70
2018-12-18T21:11:34.314Z,80.61
2018-12-18T21:14:03.474Z,80.75
2018-12-18T21:16:32.705Z,80.50
2018-12-18T21:19:01.815Z,80.50
2018-12-18T21:21:31.838Z,80.59
2018-12-18T21:24:01.155Z,80.57
2018-12-18T21:26:30.363Z,80.90
2018-12-18T21:29:00.093Z,81.01
2018-12-18T21:31:29.372Z,81.08
2018-12-18T21:33:58.603Z,81.26
2018-12-18T21:36:27.839Z,81.09
2018-12-18T21:38:57.014Z,81.03
2018-12-18T21:41:26.226Z,81.04
2018-12-18T21:43:56.073Z,81.23
2018-12-18T21:46:25.204Z,81.32
2018-12-18T21:48:55.496Z,81.14
2018-12-18T21:51:26.211Z,81.36
2018-12-18T21:53:57.050Z,81.37
2018-12-18T21:56:26.607Z,81.43
2018-12-18T21:58:55.802Z,81.41
2018-12-18T22:01:25.207Z,81.38
2018-12-18T22:03:55.075Z,81.51
2018-12-18T22:06:24.236Z,81.46
2018-12-18T22:08:53.750Z,81.63
2018-12-18T22:11:22.948Z,81.48
2018-12-18T22:13:52.028Z,81.67
2018-12-18T22:16:21.183Z,81.53
2018-12-18T22:18:50.763Z,81.54
2018-12-18T22:21:19.929Z,81.60
2018-12-18T22:23:49.110Z,81.65
2018-12-18T22:26:18.295Z,81.51
2018-12-18T22:28:47.618Z,81.30
2018-12-18T22:31:18.177Z,81.17
2018-12-18T22:33:50.194Z,80.94
2018-12-18T22:36:19.528Z,81.31
2018-12-18T22:38:48.897Z,81.35
2018-12-18T22:41:18.180Z,81.38
2018-12-18T22:43:52.567Z,81.44
2018-12-18T22:46:22.027Z,81.47
2018-12-18T22:48:54.857Z,81.56
2018-12-18T22:51:24.235Z,81.68
2018-12-18T22:53:54.323Z,81.57
2018-12-18T22:56:23.579Z,81.88
2018-12-18T22:58:52.786Z,81.66
2018-12-18T23:01:26.879Z,81.59
2018-12-18T23:03:56.587Z,81.43
2018-12-18T23:06:25.899Z,81.30
2018-12-18T23:08:55.262Z,81.35
2018-12-18T23:11:24.453Z,81.40
2018-12-18T23:13:53.635Z,81.35
2018-12-18T23:16:22.978Z,81.49
2018-12-18T23:18:53.992Z,81.68
2018-12-18T23:21:23.220Z,81.52
2018-12-18T23:23:52.420Z,81.53
2018-12-18T23:26:21.674Z,81.49
2018-12-18T23:28:50.887Z,81.52
2018-12-18T23:31:21.320Z,81.34
2018-12-18T23:33:50.507Z,81.31
2018-12-18T23:36:20.223Z,81.34
2018-12-18T23:38:56.630Z,81.33
2018-12-18T23:41:19.946Z,81.32
2018-12-18T23:43:49.295Z,81.27
2018-12-18T23:46:18.388Z,81.45
2018-12-18T23:48:48.589Z,81.48
2018-12-18T23:51:18.046Z,81.38
2018-12-18T23:53:47.260Z,81.37
2018-12-18T23:56:17.080Z,81.37
2018-12-18T23:58:46.180Z,81.31
